sensor_id;sensor_type;location;lat;lon;timestamp;pressure;altitude;pressure_sealevel;temperature;humidity
78841;BME280;68379;47.190;27.558;2023-03-30T00:00:00;100301.93;;;-0.79;54.03
78841;BME280;68379;47.190;27.558;2023-03-30T00:03:04;100299.18;;;-0.78;54.21
78841;BME280;68379;47.190;27.558;2023-03-30T00:05:36;100299.94;;;-0.74;53.99
78841;BME280;68379;47.190;27.558;2023-03-30T00:08:09;100301.70;;;-0.71;53.77
78841;BME280;68379;47.190;27.558;2023-03-30T00:10:41;100304.33;;;-0.69;53.70
78841;BME280;68379;47.190;27.558;2023-03-30T00:13:13;100308.73;;;-0.65;53.62
78841;BME280;68379;47.190;27.558;2023-03-30T00:15:47;100307.39;;;-0.60;53.53
78841;BME280;68379;47.190;27.558;2023-03-30T00:18:20;100307.77;;;-0.58;53.49
78841;BME280;68379;47.190;27.558;2023-03-30T00:20:52;100307.98;;;-0.55;53.42
78841;BME280;68379;47.190;27.558;2023-03-30T00:23:24;100308.89;;;-0.52;53.34
78841;BME280;68379;47.190;27.558;2023-03-30T00:25:56;100312.59;;;-0.48;53.19
78841;BME280;68379;47.190;27.558;2023-03-30T00:28:28;100311.41;;;-0.46;53.06
78841;BME280;68379;47.190;27.558;2023-03-30T00:31:01;100309.00;;;-0.44;53.13
78841;BME280;68379;47.190;27.558;2023-03-30T00:33:33;100307.77;;;-0.43;53.03
78841;BME280;68379;47.190;27.558;2023-03-30T00:36:06;100312.16;;;-0.41;52.89
78841;BME280;68379;47.190;27.558;2023-03-30T00:38:38;100311.09;;;-0.42;52.90
78841;BME280;68379;47.190;27.558;2023-03-30T00:41:10;100312.13;;;-0.44;52.92
78841;BME280;68379;47.190;27.558;2023-03-30T00:43:59;100308.60;;;-0.48;52.94
78841;BME280;68379;47.190;27.558;2023-03-30T00:46:32;100314.98;;;-0.51;53.05
78841;BME280;68379;47.190;27.558;2023-03-30T00:49:07;100314.58;;;-0.55;53.22
78841;BME280;68379;47.190;27.558;2023-03-30T00:51:42;100318.52;;;-0.59;53.26
78841;BME280;68379;47.190;27.558;2023-03-30T00:54:17;100318.10;;;-0.64;53.39
78841;BME280;68379;47.190;27.558;2023-03-30T00:56:51;100315.95;;;-0.69;53.36
78841;BME280;68379;47.190;27.558;2023-03-30T00:59:22;100317.30;;;-0.72;53.64
78841;BME280;68379;47.190;27.558;2023-03-30T01:01:55;100321.44;;;-0.74;53.45
78841;BME280;68379;47.190;27.558;2023-03-30T01:04:28;100325.53;;;-0.78;53.74
78841;BME280;68379;47.190;27.558;2023-03-30T01:07:00;100323.60;;;-0.80;53.56
78841;BME280;68379;47.190;27.558;2023-03-30T01:09:33;100323.95;;;-0.80;53.56
78841;BME280;68379;47.190;27.558;2023-03-30T01:12:06;100331.75;;;-0.80;53.47
78841;BME280;68379;47.190;27.558;2023-03-30T01:14:38;100327.73;;;-0.81;53.46
78841;BME280;68379;47.190;27.558;2023-03-30T01:17:20;100330.52;;;-0.81;53.67
78841;BME280;68379;47.190;27.558;2023-03-30T01:23:08;100332.04;;;-0.85;53.79
78841;BME280;68379;47.190;27.558;2023-03-30T01:26:19;100330.60;;;-0.88;53.90
78841;BME280;68379;47.190;27.558;2023-03-30T01:29:00;100341.64;;;-0.92;54.05
78841;BME280;68379;47.190;27.558;2023-03-30T01:31:57;100340.68;;;-0.97;54.15
78841;BME280;68379;47.190;27.558;2023-03-30T01:38:16;100343.92;;;-1.14;54.53
78841;BME280;68379;47.190;27.558;2023-03-30T01:40:57;100347.95;;;-1.21;55.09
78841;BME280;68379;47.190;27.558;2023-03-30T01:43:38;100349.60;;;-1.26;55.16
78841;BME280;68379;47.190;27.558;2023-03-30T01:46:21;100347.08;;;-1.32;55.29
78841;BME280;68379;47.190;27.558;2023-03-30T01:49:02;100354.13;;;-1.36;55.56
78841;BME280;68379;47.190;27.558;2023-03-30T01:51:43;100357.01;;;-1.39;55.96
78841;BME280;68379;47.190;27.558;2023-03-30T01:54:24;100356.10;;;-1.41;55.71
78841;BME280;68379;47.190;27.558;2023-03-30T01:57:06;100354.61;;;-1.48;55.60
78841;BME280;68379;47.190;27.558;2023-03-30T01:59:46;100352.09;;;-1.53;55.79
78841;BME280;68379;47.190;27.558;2023-03-30T02:02:27;100350.98;;;-1.57;56.20
78841;BME280;68379;47.190;27.558;2023-03-30T02:05:02;100354.39;;;-1.60;56.25
78841;BME280;68379;47.190;27.558;2023-03-30T02:07:38;100357.80;;;-1.63;56.56
78841;BME280;68379;47.190;27.558;2023-03-30T02:10:13;100358.64;;;-1.65;56.69
78841;BME280;68379;47.190;27.558;2023-03-30T02:12:48;100357.73;;;-1.67;56.90
78841;BME280;68379;47.190;27.558;2023-03-30T02:15:22;100361.84;;;-1.69;56.50
78841;BME280;68379;47.190;27.558;2023-03-30T02:17:56;100360.02;;;-1.74;56.63
78841;BME280;68379;47.190;27.558;2023-03-30T02:20:28;100363.60;;;-1.77;57.07
78841;BME280;68379;47.190;27.558;2023-03-30T02:23:01;100362.53;;;-1.78;57.06
78841;BME280;68379;47.190;27.558;2023-03-30T02:25:36;100360.59;;;-1.79;57.40
78841;BME280;68379;47.190;27.558;2023-03-30T02:28:09;100366.62;;;-1.82;57.33
78841;BME280;68379;47.190;27.558;2023-03-30T02:30:43;100364.52;;;-1.84;57.67
78841;BME280;68379;47.190;27.558;2023-03-30T02:33:23;100366.91;;;-1.85;57.38
78841;BME280;68379;47.190;27.558;2023-03-30T02:36:09;100367.54;;;-1.88;57.20
78841;BME280;68379;47.190;27.558;2023-03-30T02:39:06;100372.33;;;-1.92;57.37
78841;BME280;68379;47.190;27.558;2023-03-30T02:42:08;100373.27;;;-1.97;57.40
78841;BME280;68379;47.190;27.558;2023-03-30T02:44:55;100375.27;;;-2.00;57.49
78841;BME280;68379;47.190;27.558;2023-03-30T02:47:40;100384.60;;;-2.02;57.77
78841;BME280;68379;47.190;27.558;2023-03-30T02:50:16;100382.33;;;-2.03;57.60
78841;BME280;68379;47.190;27.558;2023-03-30T02:52:57;100390.78;;;-2.04;57.91
78841;BME280;68379;47.190;27.558;2023-03-30T02:55:35;100392.84;;;-2.05;57.64
78841;BME280;68379;47.190;27.558;2023-03-30T02:58:14;100395.35;;;-2.09;57.76
78841;BME280;68379;47.190;27.558;2023-03-30T03:00:52;100400.50;;;-2.12;57.63
78841;BME280;68379;47.190;27.558;2023-03-30T03:03:35;100398.19;;;-2.14;57.79
78841;BME280;68379;47.190;27.558;2023-03-30T03:06:08;100395.36;;;-2.17;57.65
78841;BME280;68379;47.190;27.558;2023-03-30T03:08:42;100399.15;;;-2.18;57.57
78841;BME280;68379;47.190;27.558;2023-03-30T03:11:17;100403.30;;;-2.18;57.88
78841;BME280;68379;47.190;27.558;2023-03-30T03:13:49;100403.01;;;-2.16;57.69
78841;BME280;68379;47.190;27.558;2023-03-30T03:16:21;100405.03;;;-2.18;57.73
78841;BME280;68379;47.190;27.558;2023-03-30T03:18:53;100405.35;;;-2.20;57.60
78841;BME280;68379;47.190;27.558;2023-03-30T03:21:26;100407.55;;;-2.22;57.70
78841;BME280;68379;47.190;27.558;2023-03-30T03:23:58;100409.92;;;-2.24;57.74
78841;BME280;68379;47.190;27.558;2023-03-30T03:26:30;100407.15;;;-2.24;57.64
78841;BME280;68379;47.190;27.558;2023-03-30T03:29:02;100402.29;;;-2.25;57.43
78841;BME280;68379;47.190;27.558;2023-03-30T03:31:34;100407.64;;;-2.26;57.24
78841;BME280;68379;47.190;27.558;2023-03-30T03:34:07;100405.88;;;-2.27;57.05
78841;BME280;68379;47.190;27.558;2023-03-30T03:36:39;100413.46;;;-2.28;56.99
78841;BME280;68379;47.190;27.558;2023-03-30T03:39:13;100417.98;;;-2.28;57.12
78841;BME280;68379;47.190;27.558;2023-03-30T03:41:45;100418.00;;;-2.27;57.27
78841;BME280;68379;47.190;27.558;2023-03-30T03:44:16;100413.15;;;-2.27;57.17
78841;BME280;68379;47.190;27.558;2023-03-30T03:46:48;100416.05;;;-2.29;57.40
78841;BME280;68379;47.190;27.558;2023-03-30T03:49:21;100414.98;;;-2.31;57.48
78841;BME280;68379;47.190;27.558;2023-03-30T03:51:53;100418.04;;;-2.34;57.52
78841;BME280;68379;47.190;27.558;2023-03-30T03:54:25;100417.25;;;-2.37;57.50
78841;BME280;68379;47.190;27.558;2023-03-30T03:56:57;100422.92;;;-2.39;57.70
78841;BME280;68379;47.190;27.558;2023-03-30T03:59:29;100425.88;;;-2.39;57.55
78841;BME280;68379;47.190;27.558;2023-03-30T04:02:01;100430.35;;;-2.40;57.70
78841;BME280;68379;47.190;27.558;2023-03-30T04:04:35;100431.04;;;-2.40;57.48
78841;BME280;68379;47.190;27.558;2023-03-30T04:07:07;100434.10;;;-2.42;57.39
78841;BME280;68379;47.190;27.558;2023-03-30T04:09:39;100431.15;;;-2.43;57.28
78841;BME280;68379;47.190;27.558;2023-03-30T04:12:11;100429.75;;;-2.43;57.39
78841;BME280;68379;47.190;27.558;2023-03-30T04:14:44;100436.13;;;-2.45;57.43
78841;BME280;68379;47.190;27.558;2023-03-30T04:17:16;100434.11;;;-2.49;57.40
78841;BME280;68379;47.190;27.558;2023-03-30T04:19:53;100438.15;;;-2.54;57.72
78841;BME280;68379;47.190;27.558;2023-03-30T04:22:26;100434.40;;;-2.59;57.85
78841;BME280;68379;47.190;27.558;2023-03-30T04:25:03;100435.84;;;-2.64;57.96
78841;BME280;68379;47.190;27.558;2023-03-30T04:27:36;100439.89;;;-2.68;58.12
78841;BME280;68379;47.190;27.558;2023-03-30T04:30:10;100443.30;;;-2.71;58.07
78841;BME280;68379;47.190;27.558;2023-03-30T04:32:43;100441.68;;;-2.73;58.18
78841;BME280;68379;47.190;27.558;2023-03-30T04:35:17;100442.57;;;-2.72;58.28
78841;BME280;68379;47.190;27.558;2023-03-30T04:37:49;100446.92;;;-2.71;58.02
78841;BME280;68379;47.190;27.558;2023-03-30T04:40:22;100448.61;;;-2.66;58.03
78841;BME280;68379;47.190;27.558;2023-03-30T04:42:54;100450.85;;;-2.59;58.05
78841;BME280;68379;47.190;27.558;2023-03-30T04:45:32;100448.90;;;-2.54;57.83
78841;BME280;68379;47.190;27.558;2023-03-30T04:48:04;100455.80;;;-2.47;57.89
78841;BME280;68379;47.190;27.558;2023-03-30T04:50:36;100460.10;;;-2.40;58.14
78841;BME280;68379;47.190;27.558;2023-03-30T04:53:09;100461.94;;;-2.36;58.00
78841;BME280;68379;47.190;27.558;2023-03-30T04:55:41;100464.27;;;-2.32;57.91
78841;BME280;68379;47.190;27.558;2023-03-30T04:58:13;100468.20;;;-2.26;57.87
78841;BME280;68379;47.190;27.558;2023-03-30T05:00:46;100468.91;;;-2.18;57.72
78841;BME280;68379;47.190;27.558;2023-03-30T05:03:18;100466.83;;;-2.10;57.66
78841;BME280;68379;47.190;27.558;2023-03-30T05:05:50;100468.10;;;-2.00;57.69
78841;BME280;68379;47.190;27.558;2023-03-30T05:08:22;100470.73;;;-1.89;57.52
78841;BME280;68379;47.190;27.558;2023-03-30T05:10:54;100471.84;;;-1.78;57.32
78841;BME280;68379;47.190;27.558;2023-03-30T05:13:27;100479.54;;;-1.66;57.11
78841;BME280;68379;47.190;27.558;2023-03-30T05:15:59;100478.89;;;-1.55;57.00
78841;BME280;68379;47.190;27.558;2023-03-30T05:18:31;100476.16;;;-1.44;56.65
78841;BME280;68379;47.190;27.558;2023-03-30T05:21:04;100479.53;;;-1.31;56.30
78841;BME280;68379;47.190;27.558;2023-03-30T05:23:36;100478.05;;;-1.17;56.04
78841;BME280;68379;47.190;27.558;2023-03-30T05:26:09;100482.77;;;-1.05;55.81
78841;BME280;68379;47.190;27.558;2023-03-30T05:28:41;100473.81;;;-0.91;55.44
78841;BME280;68379;47.190;27.558;2023-03-30T05:31:13;100471.09;;;-0.79;55.33
78841;BME280;68379;47.190;27.558;2023-03-30T05:33:46;100474.76;;;-0.66;55.05
78841;BME280;68379;47.190;27.558;2023-03-30T05:36:19;100476.53;;;-0.54;54.78
78841;BME280;68379;47.190;27.558;2023-03-30T05:38:51;100473.77;;;-0.41;54.90
78841;BME280;68379;47.190;27.558;2023-03-30T05:41:23;100473.12;;;-0.26;54.71
78841;BME280;68379;47.190;27.558;2023-03-30T05:43:55;100471.77;;;-0.11;54.22
78841;BME280;68379;47.190;27.558;2023-03-30T05:46:27;100470.16;;;-0.03;54.07
78841;BME280;68379;47.190;27.558;2023-03-30T05:48:59;100469.26;;;0.09;54.22
78841;BME280;68379;47.190;27.558;2023-03-30T05:51:31;100468.73;;;0.22;53.89
78841;BME280;68379;47.190;27.558;2023-03-30T05:54:04;100467.49;;;0.35;53.70
78841;BME280;68379;47.190;27.558;2023-03-30T05:56:36;100465.23;;;0.49;53.12
78841;BME280;68379;47.190;27.558;2023-03-30T05:59:09;100464.66;;;0.58;53.10
78841;BME280;68379;47.190;27.558;2023-03-30T06:01:42;100470.16;;;0.70;53.08
78841;BME280;68379;47.190;27.558;2023-03-30T06:04:14;100475.67;;;0.81;53.15
78841;BME280;68379;47.190;27.558;2023-03-30T06:06:46;100471.23;;;0.90;53.06
78841;BME280;68379;47.190;27.558;2023-03-30T06:09:18;100477.10;;;1.02;52.86
78841;BME280;68379;47.190;27.558;2023-03-30T06:11:50;100479.50;;;1.17;51.84
78841;BME280;68379;47.190;27.558;2023-03-30T06:14:23;100475.10;;;1.30;51.82
78841;BME280;68379;47.190;27.558;2023-03-30T06:16:55;100476.45;;;1.47;51.59
78841;BME280;68379;47.190;27.558;2023-03-30T06:19:27;100477.27;;;1.65;51.36
78841;BME280;68379;47.190;27.558;2023-03-30T06:21:59;100477.91;;;1.82;50.86
78841;BME280;68379;47.190;27.558;2023-03-30T06:24:31;100476.25;;;1.96;49.68
78841;BME280;68379;47.190;27.558;2023-03-30T06:27:03;100472.48;;;2.09;49.69
78841;BME280;68379;47.190;27.558;2023-03-30T06:29:36;100470.80;;;2.22;48.79
78841;BME280;68379;47.190;27.558;2023-03-30T06:32:08;100479.25;;;2.37;48.93
78841;BME280;68379;47.190;27.558;2023-03-30T06:34:41;100474.42;;;2.49;47.83
78841;BME280;68379;47.190;27.558;2023-03-30T06:37:13;100477.58;;;2.57;48.24
78841;BME280;68379;47.190;27.558;2023-03-30T06:39:47;100477.60;;;2.65;47.96
78841;BME280;68379;47.190;27.558;2023-03-30T06:42:20;100472.91;;;2.72;48.05
78841;BME280;68379;47.190;27.558;2023-03-30T06:44:52;100474.52;;;2.84;48.35
78841;BME280;68379;47.190;27.558;2023-03-30T06:47:24;100469.30;;;2.93;47.32
78841;BME280;68379;47.190;27.558;2023-03-30T06:49:56;100469.14;;;3.01;46.53
78841;BME280;68379;47.190;27.558;2023-03-30T06:52:29;100467.76;;;3.07;45.97
78841;BME280;68379;47.190;27.558;2023-03-30T06:55:02;100467.05;;;3.12;46.02
78841;BME280;68379;47.190;27.558;2023-03-30T06:57:34;100466.71;;;3.21;45.81
78841;BME280;68379;47.190;27.558;2023-03-30T07:00:09;100468.47;;;3.31;45.35
78841;BME280;68379;47.190;27.558;2023-03-30T07:02:44;100467.06;;;3.40;45.67
78841;BME280;68379;47.190;27.558;2023-03-30T07:05:17;100463.73;;;3.50;45.37
78841;BME280;68379;47.190;27.558;2023-03-30T07:07:54;100471.07;;;3.63;45.10
78841;BME280;68379;47.190;27.558;2023-03-30T07:10:26;100468.09;;;3.72;44.63
78841;BME280;68379;47.190;27.558;2023-03-30T07:12:59;100465.47;;;3.77;44.00
78841;BME280;68379;47.190;27.558;2023-03-30T07:15:31;100454.63;;;3.78;44.13
78841;BME280;68379;47.190;27.558;2023-03-30T07:18:05;100452.34;;;3.84;43.98
78841;BME280;68379;47.190;27.558;2023-03-30T07:20:37;100449.88;;;3.91;43.93
78841;BME280;68379;47.190;27.558;2023-03-30T07:23:10;100447.75;;;4.01;43.55
78841;BME280;68379;47.190;27.558;2023-03-30T07:25:42;100451.58;;;4.10;44.15
78841;BME280;68379;47.190;27.558;2023-03-30T07:28:15;100447.33;;;4.21;42.85
78841;BME280;68379;47.190;27.558;2023-03-30T07:30:48;100450.24;;;4.36;43.22
78841;BME280;68379;47.190;27.558;2023-03-30T07:33:21;100451.94;;;4.51;42.85
78841;BME280;68379;47.190;27.558;2023-03-30T07:35:54;100444.69;;;4.64;41.85
78841;BME280;68379;47.190;27.558;2023-03-30T07:38:26;100442.90;;;4.71;41.56
78841;BME280;68379;47.190;27.558;2023-03-30T07:40:58;100441.27;;;4.81;41.77
78841;BME280;68379;47.190;27.558;2023-03-30T07:43:31;100435.22;;;4.95;40.95
78841;BME280;68379;47.190;27.558;2023-03-30T07:46:04;100437.65;;;4.99;40.05
78841;BME280;68379;47.190;27.558;2023-03-30T07:48:36;100436.80;;;4.94;40.20
78841;BME280;68379;47.190;27.558;2023-03-30T07:51:11;100432.20;;;5.01;40.65
78841;BME280;68379;47.190;27.558;2023-03-30T07:53:45;100431.95;;;5.12;39.08
78841;BME280;68379;47.190;27.558;2023-03-30T07:56:18;100427.31;;;5.22;39.71
78841;BME280;68379;47.190;27.558;2023-03-30T07:58:50;100427.23;;;5.32;39.56
78841;BME280;68379;47.190;27.558;2023-03-30T08:01:23;100424.86;;;5.42;40.37
78841;BME280;68379;47.190;27.558;2023-03-30T08:03:55;100427.91;;;5.53;38.34
78841;BME280;68379;47.190;27.558;2023-03-30T08:06:29;100422.28;;;5.56;38.42
78841;BME280;68379;47.190;27.558;2023-03-30T08:09:01;100417.70;;;5.58;38.91
78841;BME280;68379;47.190;27.558;2023-03-30T08:11:34;100410.63;;;5.64;38.53
78841;BME280;68379;47.190;27.558;2023-03-30T08:14:07;100410.09;;;5.66;38.50
78841;BME280;68379;47.190;27.558;2023-03-30T08:16:39;100408.83;;;5.69;38.23
78841;BME280;68379;47.190;27.558;2023-03-30T08:19:11;100401.21;;;5.77;39.11
78841;BME280;68379;47.190;27.558;2023-03-30T08:21:43;100404.96;;;5.87;38.80
78841;BME280;68379;47.190;27.558;2023-03-30T08:24:16;100401.55;;;5.96;37.81
78841;BME280;68379;47.190;27.558;2023-03-30T08:26:48;100400.27;;;6.01;37.33
78841;BME280;68379;47.190;27.558;2023-03-30T08:29:20;100399.67;;;6.07;37.28
78841;BME280;68379;47.190;27.558;2023-03-30T08:31:53;100392.80;;;6.09;37.44
78841;BME280;68379;47.190;27.558;2023-03-30T08:34:25;100394.20;;;6.10;36.40
78841;BME280;68379;47.190;27.558;2023-03-30T08:36:58;100393.33;;;6.10;37.14
78841;BME280;68379;47.190;27.558;2023-03-30T08:39:31;100391.18;;;6.13;37.39
78841;BME280;68379;47.190;27.558;2023-03-30T08:42:20;100394.41;;;6.21;36.08
78841;BME280;68379;47.190;27.558;2023-03-30T08:44:59;100385.83;;;6.20;36.28
78841;BME280;68379;47.190;27.558;2023-03-30T08:47:37;100378.43;;;6.21;36.56
78841;BME280;68379;47.190;27.558;2023-03-30T08:50:14;100375.02;;;6.28;36.03
78841;BME280;68379;47.190;27.558;2023-03-30T08:52:48;100381.60;;;6.35;34.91
78841;BME280;68379;47.190;27.558;2023-03-30T08:55:25;100376.89;;;6.32;34.55
78841;BME280;68379;47.190;27.558;2023-03-30T08:58:04;100364.17;;;6.38;36.65
78841;BME280;68379;47.190;27.558;2023-03-30T09:00:45;100367.59;;;6.57;36.14
78841;BME280;68379;47.190;27.558;2023-03-30T09:03:28;100371.61;;;6.69;35.13
78841;BME280;68379;47.190;27.558;2023-03-30T09:06:09;100358.73;;;6.74;35.67
78841;BME280;68379;47.190;27.558;2023-03-30T09:08:42;100357.02;;;6.83;35.20
78841;BME280;68379;47.190;27.558;2023-03-30T09:11:18;100361.76;;;6.94;33.84
78841;BME280;68379;47.190;27.558;2023-03-30T09:13:56;100357.06;;;7.02;34.33
78841;BME280;68379;47.190;27.558;2023-03-30T09:16:37;100352.71;;;7.10;33.39
78841;BME280;68379;47.190;27.558;2023-03-30T09:19:15;100340.46;;;7.17;33.60
78841;BME280;68379;47.190;27.558;2023-03-30T09:21:51;100336.16;;;7.31;33.01
78841;BME280;68379;47.190;27.558;2023-03-30T09:24:26;100337.02;;;7.43;33.55
78841;BME280;68379;47.190;27.558;2023-03-30T09:27:04;100332.91;;;7.56;32.47
78841;BME280;68379;47.190;27.558;2023-03-30T09:29:45;100328.14;;;7.56;32.98
78841;BME280;68379;47.190;27.558;2023-03-30T09:32:27;100322.95;;;7.61;32.97
78841;BME280;68379;47.190;27.558;2023-03-30T09:35:08;100322.81;;;7.68;33.30
78841;BME280;68379;47.190;27.558;2023-03-30T09:37:43;100317.98;;;7.73;32.78
78841;BME280;68379;47.190;27.558;2023-03-30T09:40:43;100319.23;;;7.89;33.55
78841;BME280;68379;47.190;27.558;2023-03-30T09:43:31;100314.50;;;8.13;32.49
78841;BME280;68379;47.190;27.558;2023-03-30T09:46:07;100306.25;;;8.28;31.48
78841;BME280;68379;47.190;27.558;2023-03-30T09:48:44;100295.16;;;8.28;31.64
78841;BME280;68379;47.190;27.558;2023-03-30T09:51:19;100295.11;;;8.37;31.54
78841;BME280;68379;47.190;27.558;2023-03-30T09:53:57;100287.55;;;8.46;31.38
78841;BME280;68379;47.190;27.558;2023-03-30T09:56:39;100295.16;;;8.59;31.50
78841;BME280;68379;47.190;27.558;2023-03-30T09:59:26;100294.05;;;8.61;30.49
78841;BME280;68379;47.190;27.558;2023-03-30T10:02:18;100288.87;;;8.58;29.80
78841;BME280;68379;47.190;27.558;2023-03-30T10:05:00;100284.20;;;8.60;28.61
78841;BME280;68379;47.190;27.558;2023-03-30T10:07:34;100276.72;;;8.71;29.39
78841;BME280;68379;47.190;27.558;2023-03-30T10:10:31;100273.60;;;8.84;29.96
78841;BME280;68379;47.190;27.558;2023-03-30T10:13:09;100274.73;;;8.94;29.45
78841;BME280;68379;47.190;27.558;2023-03-30T10:15:45;100262.58;;;8.88;29.72
78841;BME280;68379;47.190;27.558;2023-03-30T10:18:29;100260.92;;;8.90;29.75
78841;BME280;68379;47.190;27.558;2023-03-30T10:21:14;100260.80;;;9.02;29.45
78841;BME280;68379;47.190;27.558;2023-03-30T10:24:00;100252.08;;;9.12;29.38
78841;BME280;68379;47.190;27.558;2023-03-30T10:26:36;100250.94;;;9.21;28.71
78841;BME280;68379;47.190;27.558;2023-03-30T10:29:13;100248.14;;;9.14;27.85
78841;BME280;68379;47.190;27.558;2023-03-30T10:31:49;100245.23;;;9.11;28.41
78841;BME280;68379;47.190;27.558;2023-03-30T10:34:33;100241.58;;;9.22;28.07
78841;BME280;68379;47.190;27.558;2023-03-30T10:37:11;100237.33;;;9.35;28.54
78841;BME280;68379;47.190;27.558;2023-03-30T10:39:47;100240.88;;;9.47;26.67
78841;BME280;68379;47.190;27.558;2023-03-30T10:42:22;100232.69;;;9.43;27.17
78841;BME280;68379;47.190;27.558;2023-03-30T10:44:57;100225.72;;;9.53;27.76
78841;BME280;68379;47.190;27.558;2023-03-30T10:47:46;100223.08;;;9.65;27.98
78841;BME280;68379;47.190;27.558;2023-03-30T10:50:31;100228.51;;;9.66;26.60
78841;BME280;68379;47.190;27.558;2023-03-30T10:53:18;100222.21;;;9.70;26.21
78841;BME280;68379;47.190;27.558;2023-03-30T10:55:59;100217.73;;;9.79;26.83
78841;BME280;68379;47.190;27.558;2023-03-30T10:58:45;100218.74;;;10.03;26.85
78841;BME280;68379;47.190;27.558;2023-03-30T11:01:30;100223.14;;;10.15;26.23
78841;BME280;68379;47.190;27.558;2023-03-30T11:04:13;100213.52;;;10.13;26.58
78841;BME280;68379;47.190;27.558;2023-03-30T11:06:49;100204.37;;;10.16;26.78
78841;BME280;68379;47.190;27.558;2023-03-30T11:09:27;100203.27;;;10.35;26.63
78841;BME280;68379;47.190;27.558;2023-03-30T11:12:03;100201.61;;;10.49;25.75
78841;BME280;68379;47.190;27.558;2023-03-30T11:14:43;100204.61;;;10.53;25.00
78841;BME280;68379;47.190;27.558;2023-03-30T11:17:21;100197.30;;;10.50;25.17
78841;BME280;68379;47.190;27.558;2023-03-30T11:19:56;100195.16;;;10.51;25.85
78841;BME280;68379;47.190;27.558;2023-03-30T11:22:37;100183.41;;;10.54;26.14
78841;BME280;68379;47.190;27.558;2023-03-30T11:25:21;100182.08;;;10.67;25.04
78841;BME280;68379;47.190;27.558;2023-03-30T11:27:57;100173.48;;;10.76;24.92
78841;BME280;68379;47.190;27.558;2023-03-30T11:30:31;100170.23;;;10.78;25.13
78841;BME280;68379;47.190;27.558;2023-03-30T11:33:17;100162.80;;;10.83;25.44
78841;BME280;68379;47.190;27.558;2023-03-30T11:35:54;100169.75;;;10.96;24.78
78841;BME280;68379;47.190;27.558;2023-03-30T11:38:32;100163.48;;;10.94;23.66
78841;BME280;68379;47.190;27.558;2023-03-30T11:41:11;100156.30;;;10.96;24.55
78841;BME280;68379;47.190;27.558;2023-03-30T11:43:44;100152.41;;;11.15;24.77
78841;BME280;68379;47.190;27.558;2023-03-30T11:46:20;100148.68;;;11.35;23.94
78841;BME280;68379;47.190;27.558;2023-03-30T11:49:12;100142.79;;;11.46;24.38
78841;BME280;68379;47.190;27.558;2023-03-30T11:52:00;100140.98;;;11.66;24.70
78841;BME280;68379;47.190;27.558;2023-03-30T11:57:51;100131.00;;;11.81;24.03
78841;BME280;68379;47.190;27.558;2023-03-30T12:00:45;100126.59;;;11.94;23.41
78841;BME280;68379;47.190;27.558;2023-03-30T12:03:37;100125.52;;;11.99;22.82
78841;BME280;68379;47.190;27.558;2023-03-30T12:06:28;100118.38;;;12.09;23.87
78841;BME280;68379;47.190;27.558;2023-03-30T12:09:25;100115.73;;;12.17;22.57
78841;BME280;68379;47.190;27.558;2023-03-30T12:12:06;100114.27;;;12.01;23.42
78841;BME280;68379;47.190;27.558;2023-03-30T12:15:01;100112.80;;;12.11;23.31
78841;BME280;68379;47.190;27.558;2023-03-30T12:17:50;100104.34;;;11.97;20.78
78841;BME280;68379;47.190;27.558;2023-03-30T12:20:32;100098.55;;;11.86;21.93
78841;BME280;68379;47.190;27.558;2023-03-30T12:23:18;100100.09;;;11.97;22.81
78841;BME280;68379;47.190;27.558;2023-03-30T12:28:56;100091.24;;;12.18;22.42
78841;BME280;68379;47.190;27.558;2023-03-30T12:31:49;100083.72;;;12.25;22.68
78841;BME280;68379;47.190;27.558;2023-03-30T12:34:25;100081.17;;;12.39;23.06
78841;BME280;68379;47.190;27.558;2023-03-30T12:37:03;100078.73;;;12.54;22.46
78841;BME280;68379;47.190;27.558;2023-03-30T12:39:45;100080.35;;;12.58;21.66
78841;BME280;68379;47.190;27.558;2023-03-30T12:42:22;100070.83;;;12.57;21.29
78841;BME280;68379;47.190;27.558;2023-03-30T12:45:29;100068.88;;;12.69;21.53
78841;BME280;68379;47.190;27.558;2023-03-30T12:48:21;100068.42;;;12.79;21.66
78841;BME280;68379;47.190;27.558;2023-03-30T12:51:04;100068.05;;;12.91;21.69
78841;BME280;68379;47.190;27.558;2023-03-30T12:54:15;100064.36;;;12.94;21.35
78841;BME280;68379;47.190;27.558;2023-03-30T12:56:53;100057.55;;;13.07;21.82
78841;BME280;68379;47.190;27.558;2023-03-30T13:03:10;100043.51;;;13.39;20.54
78841;BME280;68379;47.190;27.558;2023-03-30T13:05:50;100038.54;;;13.42;19.85
78841;BME280;68379;47.190;27.558;2023-03-30T13:08:28;100038.92;;;13.42;19.75
78841;BME280;68379;47.190;27.558;2023-03-30T13:11:18;100038.16;;;13.47;19.47
78841;BME280;68379;47.190;27.558;2023-03-30T13:13:58;100038.50;;;13.47;19.34
78841;BME280;68379;47.190;27.558;2023-03-30T13:17:08;100034.67;;;13.49;19.80
78841;BME280;68379;47.190;27.558;2023-03-30T13:20:12;100031.10;;;13.57;19.97
78841;BME280;68379;47.190;27.558;2023-03-30T13:22:57;100024.58;;;13.67;19.79
78841;BME280;68379;47.190;27.558;2023-03-30T13:25:38;100021.92;;;13.92;19.57
78841;BME280;68379;47.190;27.558;2023-03-30T13:28:33;100021.62;;;14.40;18.89
78841;BME280;68379;47.190;27.558;2023-03-30T13:31:15;100014.77;;;14.78;18.11
78841;BME280;68379;47.190;27.558;2023-03-30T13:33:56;100010.07;;;15.12;18.63
78841;BME280;68379;47.190;27.558;2023-03-30T13:36:34;100001.23;;;15.59;18.41
78841;BME280;68379;47.190;27.558;2023-03-30T13:39:14;100000.77;;;16.04;18.83
78841;BME280;68379;47.190;27.558;2023-03-30T13:41:58;100002.81;;;16.55;18.09
78841;BME280;68379;47.190;27.558;2023-03-30T13:44:44;99999.91;;;16.65;16.80
78841;BME280;68379;47.190;27.558;2023-03-30T13:47:38;99995.16;;;16.60;16.96
78841;BME280;68379;47.190;27.558;2023-03-30T13:50:21;99992.37;;;16.72;16.52